createdAt,value
2022-09-14T00:01:33.919Z,1.38
2022-09-14T00:04:05.991Z,2.78
2022-09-14T00:06:33.796Z,1.65
2022-09-14T00:09:02.549Z,2.50
2022-09-14T00:11:31.771Z,1.30
2022-09-14T00:14:00.589Z,2.15
2022-09-14T00:16:33.805Z,2.63
2022-09-14T00:19:07.139Z,1.35
2022-09-14T00:21:39.091Z,0.95
2022-09-14T00:24:08.246Z,2.45
2022-09-14T00:26:36.080Z,0.88
2022-09-14T00:29:04.919Z,1.27
2022-09-14T00:31:37.629Z,1.30
2022-09-14T00:34:06.983Z,1.20
2022-09-14T00:36:38.363Z,1.83
2022-09-14T00:39:06.016Z,1.45
2022-09-14T00:41:36.496Z,1.95
2022-09-14T00:44:12.886Z,1.23
2022-09-14T00:46:49.114Z,1.85
2022-09-14T00:49:22.094Z,1.73
2022-09-14T00:52:14.670Z,2.40
2022-09-14T00:54:51.456Z,2.22
2022-09-14T00:57:20.110Z,0.80
2022-09-14T00:59:50.772Z,1.38
2022-09-14T01:02:20.301Z,1.92
2022-09-14T01:04:48.670Z,4.40
2022-09-14T01:08:01.036Z,1.08
2022-09-14T01:10:50.338Z,1.17
2022-09-14T01:13:29.412Z,2.20
2022-09-14T01:16:19.604Z,1.45
2022-09-14T01:18:58.078Z,1.63
2022-09-14T01:21:38.176Z,1.08
2022-09-14T01:24:30.290Z,2.65
2022-09-14T01:27:19.117Z,2.40
2022-09-14T01:29:55.096Z,2.25
2022-09-14T01:32:27.726Z,1.45
2022-09-14T01:35:19.551Z,2.65
2022-09-14T01:37:51.854Z,1.30
2022-09-14T01:40:28.399Z,1.33
2022-09-14T01:43:06.894Z,1.65
2022-09-14T01:45:38.307Z,0.75
2022-09-14T01:48:10.240Z,1.05
2022-09-14T01:50:47.078Z,1.92
2022-09-14T01:53:28.135Z,0.95
2022-09-14T01:56:01.749Z,1.65
2022-09-14T01:58:57.033Z,1.00
2022-09-14T02:01:46.418Z,1.48
2022-09-14T02:04:26.196Z,0.95
2022-09-14T02:06:53.506Z,0.80
2022-09-14T02:09:26.558Z,1.02
2022-09-14T02:11:55.566Z,1.60
2022-09-14T02:14:23.556Z,1.08
2022-09-14T02:16:50.811Z,2.17
2022-09-14T02:19:21.773Z,2.70
2022-09-14T02:21:51.111Z,0.60
2022-09-14T02:24:18.926Z,1.45
2022-09-14T02:26:49.616Z,1.33
2022-09-14T02:29:17.098Z,3.05
2022-09-14T02:32:30.599Z,0.93
2022-09-14T02:35:08.709Z,0.80
2022-09-14T02:38:01.638Z,0.85
2022-09-14T02:41:00.244Z,1.08
2022-09-14T02:43:54.011Z,1.95
2022-09-14T02:46:38.794Z,1.00
2022-09-14T02:51:41.954Z,2.05
2022-09-14T02:54:14.335Z,1.10
2022-09-14T02:56:42.079Z,2.00
2022-09-14T02:59:09.348Z,1.05
2022-09-14T03:01:36.769Z,0.75
2022-09-14T03:04:04.078Z,3.35
2022-09-14T03:06:31.578Z,1.38
2022-09-14T03:08:58.799Z,0.70
2022-09-14T03:11:25.987Z,1.25
2022-09-14T03:13:53.259Z,0.88
2022-09-14T03:16:20.629Z,0.90
2022-09-14T03:18:47.980Z,0.85
2022-09-14T03:21:17.230Z,1.02
2022-09-14T03:23:55.148Z,1.98
2022-09-14T03:26:24.165Z,1.42
2022-09-14T03:28:59.133Z,1.20
2022-09-14T03:31:27.249Z,1.30
2022-09-14T03:33:56.799Z,0.98
2022-09-14T03:36:25.401Z,1.55
2022-09-14T03:38:55.969Z,1.48
2022-09-14T03:41:24.608Z,0.60
2022-09-14T03:43:52.195Z,1.17
2022-09-14T03:46:21.539Z,1.45
2022-09-14T03:48:49.478Z,0.90
2022-09-14T03:51:17.201Z,1.95
2022-09-14T03:53:45.348Z,1.65
2022-09-14T03:56:16.178Z,0.73
2022-09-14T03:58:44.671Z,0.90
2022-09-14T04:01:16.013Z,1.35
2022-09-14T04:03:43.905Z,0.73
2022-09-14T04:06:11.879Z,0.85
2022-09-14T04:08:41.306Z,0.60
2022-09-14T04:11:17.826Z,1.60
2022-09-14T04:13:45.965Z,1.92
2022-09-14T04:16:13.827Z,1.05
2022-09-14T04:18:41.141Z,0.70
2022-09-14T04:21:14.288Z,0.30
2022-09-14T04:24:10.114Z,0.57
2022-09-14T04:26:30.865Z,1.73
2022-09-14T04:28:59.271Z,1.73
2022-09-14T04:31:26.756Z,0.80
2022-09-14T04:33:56.350Z,1.25
2022-09-14T04:36:30.841Z,1.05
2022-09-14T04:39:03.370Z,1.08
2022-09-14T04:41:31.990Z,1.35
2022-09-14T04:44:00.210Z,1.05
2022-09-14T04:46:35.058Z,1.73
2022-09-14T04:49:03.073Z,1.00
2022-09-14T04:51:31.694Z,1.83
2022-09-14T04:54:00.208Z,2.55
2022-09-14T04:56:28.954Z,0.40
2022-09-14T04:58:59.631Z,0.88
2022-09-14T05:01:29.442Z,1.27
2022-09-14T05:03:57.543Z,1.55
2022-09-14T05:06:27.176Z,2.47
2022-09-14T05:08:55.480Z,1.10
2022-09-14T05:11:24.917Z,1.50
2022-09-14T05:13:52.689Z,1.05
2022-09-14T05:16:22.971Z,2.28
2022-09-14T05:18:53.374Z,1.10
2022-09-14T05:21:21.935Z,1.58
2022-09-14T05:23:53.228Z,1.65
2022-09-14T05:26:20.485Z,2.15
2022-09-14T05:28:52.554Z,2.30
2022-09-14T05:31:20.619Z,2.85
2022-09-14T05:33:47.966Z,2.22
2022-09-14T05:36:15.457Z,2.88
2022-09-14T05:38:43.090Z,3.85
2022-09-14T05:41:12.897Z,2.08
2022-09-14T05:43:40.374Z,2.38
2022-09-14T05:46:13.127Z,1.48
2022-09-14T05:48:41.135Z,1.88
2022-09-14T05:51:14.283Z,1.98
2022-09-14T05:53:42.019Z,2.10
2022-09-14T05:56:14.097Z,1.65
2022-09-14T05:58:42.534Z,3.40
2022-09-14T06:01:15.207Z,3.20
2022-09-14T06:03:43.766Z,1.75
2022-09-14T06:06:15.805Z,1.55
2022-09-14T06:08:43.516Z,1.92
2022-09-14T06:11:15.123Z,2.53
2022-09-14T06:13:43.173Z,1.67
2022-09-14T06:16:14.377Z,3.40
2022-09-14T06:18:43.585Z,3.72
2022-09-14T06:21:15.251Z,6.03
2022-09-14T06:23:43.331Z,1.40
2022-09-14T06:26:11.478Z,4.45
2022-09-14T06:28:39.600Z,2.33
2022-09-14T06:31:09.862Z,2.42
2022-09-14T06:33:37.273Z,2.28
2022-09-14T06:36:12.554Z,2.63
2022-09-14T06:38:41.017Z,2.83
2022-09-14T06:41:10.176Z,1.67
2022-09-14T06:43:40.592Z,2.47
2022-09-14T06:46:32.305Z,2.60
2022-09-14T06:49:07.047Z,3.03
2022-09-14T06:51:36.935Z,2.03
2022-09-14T06:54:05.511Z,5.07
2022-09-14T06:56:36.052Z,2.63
2022-09-14T06:59:04.757Z,2.40
2022-09-14T07:01:32.176Z,3.83
2022-09-14T07:04:01.546Z,4.00
2022-09-14T07:06:32.178Z,3.92
2022-09-14T07:09:03.246Z,6.95
2022-09-14T07:11:30.765Z,11.57
2022-09-14T07:13:59.000Z,8.60
2022-09-14T07:16:27.106Z,8.82
2022-09-14T07:18:56.252Z,11.32
2022-09-14T07:21:23.983Z,13.32
2022-09-14T07:23:51.870Z,7.80
2022-09-14T07:26:31.159Z,9.88
2022-09-14T07:29:01.565Z,6.35
2022-09-14T07:31:39.223Z,6.78
2022-09-14T07:34:06.887Z,7.95
2022-09-14T07:36:36.652Z,5.70
2022-09-14T07:39:07.516Z,10.35
2022-09-14T07:41:35.660Z,15.95
2022-09-14T07:44:06.144Z,12.27
2022-09-14T07:46:41.820Z,10.48
2022-09-14T07:49:10.148Z,13.35
2022-09-14T07:51:38.706Z,17.95
2022-09-14T07:54:07.679Z,23.02
2022-09-14T07:56:35.418Z,20.63
2022-09-14T07:59:30.722Z,10.43
2022-09-14T08:01:51.413Z,7.85
2022-09-14T08:04:18.704Z,7.60
2022-09-14T08:06:46.010Z,4.65
2022-09-14T08:09:14.238Z,4.90
2022-09-14T08:11:41.504Z,7.70
2022-09-14T08:14:11.493Z,7.22
2022-09-14T08:16:40.701Z,5.35
2022-09-14T08:19:16.918Z,4.90
2022-09-14T08:21:47.098Z,11.43
2022-09-14T08:24:18.201Z,7.40
2022-09-14T08:26:46.316Z,9.55
2022-09-14T08:29:16.216Z,10.48
2022-09-14T08:31:45.611Z,6.53
2022-09-14T08:34:14.777Z,6.63
2022-09-14T08:36:43.345Z,18.92
2022-09-14T08:39:12.938Z,10.65
2022-09-14T08:41:58.572Z,10.18
2022-09-14T08:44:41.747Z,8.20
2022-09-14T08:47:18.581Z,8.15
2022-09-14T08:49:48.903Z,9.80
2022-09-14T08:52:31.253Z,6.78
2022-09-14T08:55:01.793Z,8.30
2022-09-14T08:57:42.712Z,9.35
2022-09-14T09:00:13.442Z,4.97
2022-09-14T09:03:10.669Z,3.22
2022-09-14T09:05:47.030Z,8.40
2022-09-14T09:08:19.173Z,5.35
2022-09-14T09:10:48.087Z,4.72
2022-09-14T09:13:20.479Z,9.07
2022-09-14T09:15:52.064Z,5.03
2022-09-14T09:18:39.823Z,4.43
2022-09-14T09:21:31.657Z,4.63
2022-09-14T09:24:23.922Z,9.38
2022-09-14T09:26:51.515Z,5.38
2022-09-14T09:29:19.126Z,4.25
2022-09-14T09:31:50.935Z,7.25
2022-09-14T09:34:28.576Z,14.13
2022-09-14T09:36:56.235Z,14.70
2022-09-14T09:39:26.969Z,13.05
2022-09-14T09:42:07.489Z,13.63
2022-09-14T09:45:11.177Z,12.55
2022-09-14T09:47:41.228Z,9.15
2022-09-14T09:50:14.544Z,15.20
2022-09-14T09:52:52.015Z,12.48
2022-09-14T09:55:26.464Z,9.27
2022-09-14T10:00:24.836Z,17.13
2022-09-14T10:02:54.042Z,36.63
2022-09-14T10:05:25.634Z,25.77
2022-09-14T10:07:56.418Z,24.38
2022-09-14T10:10:44.612Z,23.58
2022-09-14T10:13:38.193Z,19.00
2022-09-14T10:16:17.995Z,15.90
2022-09-14T10:18:49.231Z,12.30
2022-09-14T10:21:18.742Z,13.35
2022-09-14T10:23:46.864Z,11.75
2022-09-14T10:26:14.035Z,23.42
2022-09-14T10:28:47.021Z,16.85
2022-09-14T10:31:27.936Z,15.70
2022-09-14T10:33:56.995Z,13.30
2022-09-14T10:36:38.688Z,9.90
2022-09-14T10:39:47.743Z,9.45
2022-09-14T10:42:38.347Z,5.70
2022-09-14T10:45:17.692Z,23.63
2022-09-14T10:48:17.788Z,42.95
2022-09-14T10:50:56.903Z,26.98
2022-09-14T10:53:36.133Z,44.75
2022-09-14T10:56:07.416Z,20.30
2022-09-14T10:58:49.632Z,15.30
2022-09-14T11:01:26.925Z,13.32
2022-09-14T11:03:54.260Z,10.20
2022-09-14T11:06:30.830Z,10.00
2022-09-14T11:09:34.026Z,12.90
2022-09-14T11:12:18.814Z,11.10
2022-09-14T11:17:55.139Z,11.40
2022-09-14T11:20:42.985Z,14.63
2022-09-14T11:23:31.703Z,10.55
2022-09-14T11:26:04.332Z,8.40
2022-09-14T11:28:52.619Z,7.47
2022-09-14T11:31:28.532Z,5.88
2022-09-14T11:34:08.263Z,6.50
2022-09-14T11:36:47.403Z,9.27
2022-09-14T11:39:20.479Z,6.32
2022-09-14T11:42:13.171Z,9.40
2022-09-14T11:44:42.605Z,6.80
2022-09-14T11:47:19.173Z,10.30
2022-09-14T11:50:11.476Z,8.20
2022-09-14T11:52:38.751Z,12.55
2022-09-14T11:55:11.775Z,8.18
2022-09-14T11:57:39.136Z,6.85
2022-09-14T12:00:20.027Z,10.15
2022-09-14T12:03:01.303Z,12.43
2022-09-14T12:05:31.985Z,13.60
2022-09-14T12:08:02.237Z,8.77
2022-09-14T12:10:30.997Z,9.90
2022-09-14T12:13:08.293Z,8.35
2022-09-14T12:15:37.272Z,15.95
2022-09-14T12:18:07.591Z,7.38
2022-09-14T12:20:37.793Z,8.98
2022-09-14T12:23:37.066Z,10.73
2022-09-14T12:26:10.174Z,8.30
2022-09-14T12:28:37.686Z,9.57
2022-09-14T12:31:06.595Z,8.15
2022-09-14T12:33:33.940Z,6.50
2022-09-14T12:36:11.030Z,5.50
2022-09-14T12:38:38.212Z,9.27
2022-09-14T12:41:31.910Z,7.07
2022-09-14T12:43:59.150Z,15.30
2022-09-14T12:46:35.243Z,10.02
2022-09-14T12:49:14.905Z,13.65
2022-09-14T12:51:50.188Z,7.15
2022-09-14T12:54:35.287Z,9.88
2022-09-14T12:57:21.034Z,9.63
2022-09-14T13:00:17.651Z,4.82
2022-09-14T13:03:20.048Z,7.28
2022-09-14T13:05:47.409Z,5.18
2022-09-14T13:08:22.546Z,5.43
2022-09-14T13:10:52.872Z,6.55
2022-09-14T13:13:25.737Z,8.02
2022-09-14T13:16:02.997Z,11.02
2022-09-14T13:18:31.917Z,10.02
2022-09-14T13:21:02.063Z,11.57
2022-09-14T13:23:37.357Z,7.60
2022-09-14T13:26:19.470Z,7.38
2022-09-14T13:28:49.447Z,6.82
2022-09-14T13:31:33.322Z,4.35
2022-09-14T13:34:00.903Z,5.73
2022-09-14T13:36:31.566Z,7.07
2022-09-14T13:39:01.512Z,5.70
2022-09-14T13:41:30.548Z,7.93
2022-09-14T13:43:59.764Z,7.03
2022-09-14T13:46:28.224Z,9.32
2022-09-14T13:48:56.229Z,6.30
2022-09-14T13:51:26.022Z,7.57
2022-09-14T13:53:56.497Z,6.10
2022-09-14T13:56:33.099Z,6.55
2022-09-14T13:59:10.561Z,3.97
2022-09-14T14:01:57.924Z,7.80
2022-09-14T14:04:35.565Z,4.80
2022-09-14T14:07:23.186Z,5.22
2022-09-14T14:09:53.755Z,8.45
2022-09-14T14:12:30.842Z,11.88
2022-09-14T14:15:09.351Z,9.98
2022-09-14T14:17:39.414Z,20.75
2022-09-14T14:20:35.363Z,20.58
2022-09-14T14:23:11.606Z,14.48
2022-09-14T14:25:46.352Z,20.52
2022-09-14T14:28:32.556Z,14.20
2022-09-14T14:31:07.791Z,23.50
2022-09-14T14:33:43.551Z,19.50
2022-09-14T14:36:11.021Z,14.43
2022-09-14T14:38:38.371Z,14.80
2022-09-14T14:41:05.942Z,15.68
2022-09-14T14:43:33.410Z,17.08
2022-09-14T14:46:02.125Z,13.80
2022-09-14T14:48:29.899Z,9.60
2022-09-14T14:50:57.200Z,12.25
2022-09-14T14:53:25.712Z,14.80
2022-09-14T14:55:53.360Z,15.15
2022-09-14T14:58:21.993Z,10.35
2022-09-14T15:00:49.847Z,11.57
2022-09-14T15:03:19.135Z,9.20
2022-09-14T15:05:47.591Z,10.90
2022-09-14T15:08:17.561Z,14.43
2022-09-14T15:10:44.806Z,11.38
2022-09-14T15:13:13.002Z,9.93
2022-09-14T15:15:42.921Z,7.75
2022-09-14T15:18:10.206Z,9.13
2022-09-14T15:20:37.869Z,8.95
2022-09-14T15:23:05.967Z,9.00
2022-09-14T15:25:33.408Z,8.80
2022-09-14T15:28:00.697Z,10.30
2022-09-14T15:30:27.966Z,11.20
2022-09-14T15:32:55.222Z,9.85
2022-09-14T15:35:22.896Z,8.48
2022-09-14T15:37:50.140Z,9.23
2022-09-14T15:40:17.615Z,8.32
2022-09-14T15:42:44.977Z,6.18
2022-09-14T15:45:12.650Z,5.85
2022-09-14T15:47:42.903Z,7.25
2022-09-14T15:50:11.705Z,11.95
2022-09-14T15:52:39.882Z,6.93
2022-09-14T15:55:09.449Z,6.60
2022-09-14T15:57:37.688Z,5.32
2022-09-14T16:00:08.473Z,4.47
2022-09-14T16:02:35.773Z,6.15
2022-09-14T16:05:03.266Z,4.78
2022-09-14T16:07:30.532Z,7.30
2022-09-14T16:09:59.105Z,6.95
2022-09-14T16:12:26.459Z,4.57
2022-09-14T16:14:53.852Z,4.38
2022-09-14T16:17:21.102Z,4.85
2022-09-14T16:19:49.361Z,4.07
2022-09-14T16:22:16.778Z,4.60
2022-09-14T16:24:44.316Z,5.20
2022-09-14T16:27:11.599Z,4.15
2022-09-14T16:29:40.318Z,4.93
2022-09-14T16:32:07.605Z,3.78
2022-09-14T16:34:36.311Z,5.05
2022-09-14T16:37:04.282Z,4.30
2022-09-14T16:39:31.877Z,2.97
2022-09-14T16:42:00.008Z,2.70
2022-09-14T16:44:28.289Z,3.78
2022-09-14T16:46:57.807Z,2.20
2022-09-14T16:49:27.879Z,3.47
2022-09-14T16:51:56.239Z,3.45
2022-09-14T16:54:25.575Z,2.40
2022-09-14T16:56:57.027Z,4.00
2022-09-14T16:59:24.448Z,3.38
2022-09-14T17:01:54.630Z,6.30
2022-09-14T17:04:23.644Z,4.88
2022-09-14T17:06:52.855Z,5.30
2022-09-14T17:09:29.650Z,3.65
2022-09-14T17:11:58.081Z,7.15
2022-09-14T17:14:28.512Z,3.42
2022-09-14T17:16:56.564Z,8.27
2022-09-14T17:19:24.003Z,5.30
2022-09-14T17:21:51.890Z,9.60
2022-09-14T17:24:20.611Z,3.92
2022-09-14T17:26:48.227Z,4.22
2022-09-14T17:29:15.701Z,3.00
2022-09-14T17:31:44.760Z,1.63
2022-09-14T17:34:14.085Z,1.67
2022-09-14T17:36:41.433Z,3.20
2022-09-14T17:39:12.190Z,3.80
2022-09-14T17:41:41.194Z,3.70
2022-09-14T17:44:10.391Z,4.45
2022-09-14T17:46:45.909Z,4.43
2022-09-14T17:49:18.671Z,4.50
2022-09-14T17:51:45.973Z,5.97
2022-09-14T17:54:13.574Z,4.18
2022-09-14T17:56:41.202Z,3.80
2022-09-14T17:59:12.155Z,2.35
2022-09-14T18:01:39.948Z,4.43
2022-09-14T18:04:10.938Z,4.85
2022-09-14T18:06:41.360Z,4.60
2022-09-14T18:09:15.943Z,6.95
2022-09-14T18:11:43.884Z,8.88
2022-09-14T18:14:13.555Z,2.15
2022-09-14T18:16:41.524Z,2.10
2022-09-14T18:19:09.489Z,3.75
2022-09-14T18:21:37.071Z,4.88
2022-09-14T18:24:04.610Z,2.00
2022-09-14T18:26:31.935Z,6.53
2022-09-14T18:28:59.169Z,5.90
2022-09-14T18:31:26.872Z,2.25
2022-09-14T18:33:59.113Z,4.30
2022-09-14T18:36:29.242Z,2.00
2022-09-14T18:38:57.493Z,3.70
2022-09-14T18:41:24.886Z,3.17
2022-09-14T18:43:53.783Z,4.10
2022-09-14T18:46:24.614Z,5.78
2022-09-14T18:48:54.544Z,4.05
2022-09-14T18:51:23.042Z,6.18
2022-09-14T18:53:55.472Z,3.13
2022-09-14T18:56:22.757Z,1.83
2022-09-14T18:58:49.975Z,2.92
2022-09-14T19:01:17.910Z,5.47
2022-09-14T19:03:45.343Z,3.58
2022-09-14T19:06:15.258Z,2.97
2022-09-14T19:08:42.866Z,3.50
2022-09-14T19:11:21.882Z,1.88
2022-09-14T19:13:50.827Z,2.25
2022-09-14T19:16:19.432Z,0.90
2022-09-14T19:18:48.451Z,1.13
2022-09-14T19:21:27.736Z,2.67
2022-09-14T19:24:00.563Z,0.98
2022-09-14T19:26:31.747Z,1.80
2022-09-14T19:29:03.609Z,2.28
2022-09-14T19:31:31.374Z,2.00
2022-09-14T19:34:00.160Z,3.85
2022-09-14T19:36:28.321Z,1.65
2022-09-14T19:38:57.329Z,1.40
2022-09-14T19:41:25.455Z,3.25
2022-09-14T19:43:52.727Z,2.88
2022-09-14T19:46:23.327Z,2.35
2022-09-14T19:48:51.760Z,1.23
2022-09-14T19:51:25.296Z,3.63
2022-09-14T19:53:54.946Z,4.03
2022-09-14T19:56:25.566Z,2.70
2022-09-14T19:58:55.257Z,0.68
2022-09-14T20:01:25.432Z,1.10
2022-09-14T20:03:53.347Z,2.78
2022-09-14T20:06:23.654Z,5.57
2022-09-14T20:08:54.446Z,2.80
2022-09-14T20:11:23.712Z,2.28
2022-09-14T20:13:53.440Z,4.65
2022-09-14T20:16:24.555Z,2.90
2022-09-14T20:18:52.206Z,1.83
2022-09-14T20:21:23.467Z,1.48
2022-09-14T20:24:15.036Z,5.88
2022-09-14T20:26:44.027Z,2.40
2022-09-14T20:29:11.525Z,4.90
2022-09-14T20:31:38.893Z,3.50
2022-09-14T20:34:06.454Z,2.65
2022-09-14T20:36:33.778Z,1.75
2022-09-14T20:39:01.294Z,1.75
2022-09-14T20:41:30.754Z,2.10
2022-09-14T20:43:58.319Z,2.28
2022-09-14T20:46:31.664Z,2.72
2022-09-14T20:48:59.275Z,2.53
2022-09-14T20:51:27.331Z,3.55
2022-09-14T20:53:56.374Z,2.65
2022-09-14T20:56:26.916Z,1.48
2022-09-14T20:58:56.192Z,2.13
2022-09-14T21:01:25.854Z,1.13
2022-09-14T21:03:53.573Z,1.38
2022-09-14T21:06:26.392Z,1.52
2022-09-14T21:08:53.756Z,0.85
2022-09-14T21:11:23.786Z,2.30
2022-09-14T21:13:53.543Z,1.30
2022-09-14T21:16:36.796Z,2.17
2022-09-14T21:19:08.070Z,1.70
2022-09-14T21:21:35.882Z,1.73
2022-09-14T21:24:05.667Z,3.28
2022-09-14T21:26:38.314Z,1.63
2022-09-14T21:29:16.193Z,1.27
2022-09-14T21:31:44.952Z,1.52
2022-09-14T21:34:13.326Z,2.25
2022-09-14T21:36:46.882Z,2.28
2022-09-14T21:39:17.246Z,2.23
2022-09-14T21:41:45.114Z,1.27
2022-09-14T21:44:13.744Z,1.65
2022-09-14T21:46:41.921Z,1.38
2022-09-14T21:49:17.680Z,1.75
2022-09-14T21:51:44.979Z,1.95
2022-09-14T21:54:13.619Z,2.17
2022-09-14T21:56:42.898Z,1.83
2022-09-14T21:59:13.939Z,1.40
2022-09-14T22:01:42.126Z,3.42
2022-09-14T22:04:13.760Z,2.78
2022-09-14T22:06:41.032Z,1.52
2022-09-14T22:09:08.491Z,1.75
2022-09-14T22:11:37.568Z,0.50
2022-09-14T22:14:18.192Z,1.52
2022-09-14T22:16:46.381Z,1.17
2022-09-14T22:19:25.261Z,1.25
2022-09-14T22:21:53.174Z,2.08
2022-09-14T22:24:27.130Z,2.65
2022-09-14T22:26:54.755Z,0.90
2022-09-14T22:29:22.026Z,1.52
2022-09-14T22:31:49.618Z,1.80
2022-09-14T22:34:18.458Z,1.35
2022-09-14T22:36:46.013Z,1.15
2022-09-14T22:39:14.246Z,0.80
2022-09-14T22:41:41.631Z,1.23
2022-09-14T22:44:09.291Z,1.27
2022-09-14T22:46:36.940Z,0.90
2022-09-14T22:49:04.516Z,1.10
2022-09-14T22:51:31.874Z,0.90
2022-09-14T22:53:59.345Z,1.55
2022-09-14T22:56:35.784Z,1.00
2022-09-14T22:59:05.934Z,1.40
2022-09-14T23:01:36.243Z,1.75
2022-09-14T23:04:07.247Z,0.60
2022-09-14T23:06:40.733Z,1.33
2022-09-14T23:09:10.743Z,0.60
2022-09-14T23:11:38.021Z,3.03
2022-09-14T23:14:05.597Z,2.10
2022-09-14T23:16:32.933Z,0.55
2022-09-14T23:19:02.490Z,1.33
2022-09-14T23:21:31.141Z,1.08
2022-09-14T23:24:06.000Z,0.70
2022-09-14T23:26:33.964Z,1.02
2022-09-14T23:29:09.124Z,1.35
2022-09-14T23:31:36.601Z,1.63
2022-09-14T23:34:05.348Z,0.93
2022-09-14T23:36:33.073Z,1.50
2022-09-14T23:39:00.725Z,1.92
2022-09-14T23:41:28.521Z,1.02
2022-09-14T23:43:56.147Z,2.08
2022-09-14T23:46:23.528Z,0.80
2022-09-14T23:48:51.291Z,1.45
2022-09-14T23:51:19.041Z,1.85
2022-09-14T23:53:46.311Z,1.50
2022-09-14T23:56:14.052Z,2.05
2022-09-14T23:58:42.050Z,2.70
